Rothesay, Canada
Current Conditions -  °F | °C
As of 8:00 AM on Monday 26 Jan 2015 (Local Time) from CYSJ Reporting Station
Few Clouds Few Clouds  
Wind Chill: -14°   Ceiling: Unl
Heat Index:   Visibility: 15mi
Dew Point: -8°   Wind: 9mph
Humidity: 66%   Direction: 330°NNW
Pressure: 30.09"   Gusts: NA
Location:  45.39°N, 65.99°W
Report Text: CYSJ 261200Z 33008KT 15SM FEW020 FEW260 M17/M22 A3009 RMK SC1CI1 SC TR SLP199
Loading
Personal Weather Stations






























Interactive Weather Map New forecast layout! Learn more

10-Day Weather Forecast

Advertisements
Track Severe Weather on mobile